createdAt,value
2018-06-20T00:01:24.466Z,99.90
2018-06-20T00:03:53.061Z,99.90
2018-06-20T00:06:21.313Z,99.90
2018-06-20T00:08:52.894Z,99.90
2018-06-20T00:11:25.410Z,99.90
2018-06-20T00:13:55.314Z,99.90
2018-06-20T00:16:24.507Z,99.90
2018-06-20T00:18:52.762Z,99.90
2018-06-20T00:21:20.982Z,99.90
2018-06-20T00:23:49.867Z,99.90
2018-06-20T00:26:18.099Z,99.90
2018-06-20T00:28:46.627Z,99.90
2018-06-20T00:31:15.228Z,99.90
2018-06-20T00:33:43.991Z,99.90
2018-06-20T00:36:12.223Z,99.90
2018-06-20T00:38:40.945Z,99.90
2018-06-20T00:41:09.969Z,99.90
2018-06-20T00:43:38.182Z,99.90
2018-06-20T00:46:06.830Z,99.90
2018-06-20T00:48:35.070Z,99.90
2018-06-20T00:51:03.785Z,99.90
2018-06-20T00:53:32.778Z,99.90
2018-06-20T00:56:13.070Z,99.90
2018-06-20T00:58:41.300Z,99.90
2018-06-20T01:01:10.303Z,99.90
2018-06-20T01:03:39.203Z,99.90
2018-06-20T01:06:07.847Z,99.90
2018-06-20T01:08:36.123Z,99.90
2018-06-20T01:11:04.691Z,99.90
2018-06-20T01:13:34.177Z,99.90
2018-06-20T01:16:03.278Z,99.90
2018-06-20T01:18:31.747Z,99.90
2018-06-20T01:23:28.546Z,99.90
2018-06-20T01:25:56.817Z,99.90
2018-06-20T01:28:25.401Z,99.90
2018-06-20T01:30:54.260Z,99.90
2018-06-20T01:33:22.881Z,99.90
2018-06-20T01:35:51.129Z,99.90
2018-06-20T01:38:19.410Z,99.90
2018-06-20T01:40:48.098Z,99.90
2018-06-20T01:43:16.371Z,99.90
2018-06-20T01:45:45.274Z,99.90
2018-06-20T01:48:13.539Z,99.90
2018-06-20T01:50:42.159Z,99.90
2018-06-20T01:53:10.415Z,99.90
2018-06-20T01:55:39.100Z,99.90
2018-06-20T01:58:07.332Z,99.90
2018-06-20T02:00:35.573Z,99.90
2018-06-20T02:03:04.294Z,99.90
2018-06-20T02:08:00.899Z,99.90
2018-06-20T02:10:29.342Z,99.90
2018-06-20T02:12:57.529Z,99.90
2018-06-20T02:15:29.095Z,99.90
2018-06-20T02:17:57.674Z,99.90
2018-06-20T02:20:26.369Z,99.90
2018-06-20T02:22:54.585Z,99.90
2018-06-20T02:25:23.122Z,99.90
2018-06-20T02:27:51.470Z,99.90
2018-06-20T02:30:19.684Z,99.90
2018-06-20T02:32:48.362Z,99.90
2018-06-20T02:35:17.044Z,99.90
2018-06-20T02:37:45.944Z,99.90
2018-06-20T02:40:14.602Z,99.90
2018-06-20T02:42:43.387Z,99.90
2018-06-20T02:45:11.668Z,99.90
2018-06-20T02:47:42.111Z,99.90
2018-06-20T02:50:11.497Z,99.90
2018-06-20T02:52:40.502Z,99.90
2018-06-20T02:55:09.174Z,99.90
2018-06-20T02:57:37.959Z,99.90
2018-06-20T03:00:06.516Z,99.90
2018-06-20T03:02:35.177Z,99.90
2018-06-20T03:05:03.743Z,99.90
2018-06-20T03:07:31.967Z,99.90
2018-06-20T03:10:00.590Z,99.90
2018-06-20T03:12:29.197Z,99.90
2018-06-20T03:14:57.478Z,99.90
2018-06-20T03:17:26.162Z,99.90
2018-06-20T03:19:54.762Z,99.90
2018-06-20T03:22:23.698Z,99.90
2018-06-20T03:24:52.001Z,99.90
2018-06-20T03:27:20.647Z,99.90
2018-06-20T03:29:49.233Z,99.90
2018-06-20T03:32:18.672Z,99.90
2018-06-20T03:34:47.292Z,99.90
2018-06-20T03:37:15.856Z,99.90
2018-06-20T03:39:44.110Z,99.90
2018-06-20T03:42:12.647Z,99.90
2018-06-20T03:44:41.347Z,99.90
2018-06-20T03:47:10.078Z,99.90
2018-06-20T03:49:38.352Z,99.90
2018-06-20T03:52:07.038Z,99.90
2018-06-20T03:54:35.732Z,99.90
2018-06-20T03:57:04.577Z,99.90
2018-06-20T03:59:33.210Z,99.90
2018-06-20T04:02:02.079Z,99.90
2018-06-20T04:04:30.756Z,99.90
2018-06-20T04:06:59.377Z,99.90
2018-06-20T04:09:28.042Z,99.90
2018-06-20T04:11:56.663Z,99.90
2018-06-20T04:14:24.901Z,99.90
2018-06-20T04:16:53.518Z,99.90
2018-06-20T04:19:21.717Z,99.90
2018-06-20T04:21:50.345Z,99.90
2018-06-20T04:24:18.952Z,99.90
2018-06-20T04:26:47.282Z,99.90
2018-06-20T04:29:16.296Z,99.90
2018-06-20T04:31:44.938Z,99.90
2018-06-20T04:34:13.256Z,99.90
2018-06-20T04:36:42.291Z,99.90
2018-06-20T04:39:11.346Z,99.90
2018-06-20T04:41:40.317Z,99.90
2018-06-20T04:44:15.106Z,99.90
2018-06-20T04:46:43.658Z,99.90
2018-06-20T04:49:12.690Z,99.90
2018-06-20T04:51:41.305Z,99.90
2018-06-20T04:54:10.303Z,99.90
2018-06-20T04:56:39.426Z,99.90
2018-06-20T04:59:07.702Z,99.90
2018-06-20T05:01:36.026Z,99.90
2018-06-20T05:04:04.679Z,99.90
2018-06-20T05:06:32.941Z,99.90
2018-06-20T05:09:02.655Z,99.90
2018-06-20T05:11:30.966Z,99.90
2018-06-20T05:13:59.249Z,99.90
2018-06-20T05:16:27.874Z,99.90
2018-06-20T05:18:56.958Z,99.90
2018-06-20T05:21:25.510Z,99.90
2018-06-20T05:23:53.750Z,99.90
2018-06-20T05:26:22.634Z,99.90
2018-06-20T05:28:51.250Z,99.90
2018-06-20T05:31:19.934Z,99.90
2018-06-20T05:33:48.158Z,99.90
2018-06-20T05:36:16.809Z,99.90
2018-06-20T05:38:45.848Z,99.90
2018-06-20T05:41:14.098Z,99.90
2018-06-20T05:43:42.639Z,99.90
2018-06-20T05:46:11.163Z,99.90
2018-06-20T05:48:39.702Z,99.90
2018-06-20T05:51:07.934Z,99.90
2018-06-20T05:53:36.174Z,99.90
2018-06-20T05:56:05.251Z,99.90
2018-06-20T05:58:34.195Z,99.90
2018-06-20T06:01:02.916Z,99.90
2018-06-20T06:03:31.467Z,99.90
2018-06-20T06:06:09.470Z,99.90
2018-06-20T06:08:37.887Z,99.90
2018-06-20T06:11:06.126Z,99.90
2018-06-20T06:13:34.682Z,99.90
2018-06-20T06:16:02.961Z,99.90
2018-06-20T06:18:31.218Z,99.90
2018-06-20T06:20:59.462Z,99.90
2018-06-20T06:23:27.666Z,99.90
2018-06-20T06:25:57.527Z,99.90
2018-06-20T06:28:26.304Z,99.90
2018-06-20T06:30:54.561Z,99.90
2018-06-20T06:33:23.240Z,99.90
2018-06-20T06:35:51.493Z,99.90
2018-06-20T06:38:19.677Z,99.90
2018-06-20T06:40:47.877Z,99.90
2018-06-20T06:43:16.102Z,99.90
2018-06-20T06:45:44.423Z,99.90
2018-06-20T06:48:12.658Z,99.90
2018-06-20T06:50:40.959Z,99.90
2018-06-20T06:53:09.499Z,99.90
2018-06-20T06:55:38.049Z,99.90
2018-06-20T06:58:06.607Z,99.90
2018-06-20T07:00:35.279Z,99.90
2018-06-20T07:03:03.486Z,99.90
2018-06-20T07:05:31.677Z,99.90
2018-06-20T07:08:00.218Z,99.90
2018-06-20T07:10:28.402Z,99.90
2018-06-20T07:12:56.992Z,99.90
2018-06-20T07:15:25.245Z,99.90
2018-06-20T07:17:53.972Z,99.90
2018-06-20T07:20:22.154Z,99.90
2018-06-20T07:22:50.424Z,99.90
2018-06-20T07:25:18.933Z,99.90
2018-06-20T07:27:47.631Z,99.90
2018-06-20T07:30:15.905Z,99.90
2018-06-20T07:32:44.064Z,99.90
2018-06-20T07:35:12.594Z,99.90
2018-06-20T07:37:41.091Z,99.90
2018-06-20T07:40:09.298Z,99.90
2018-06-20T07:42:38.006Z,99.90
2018-06-20T07:45:07.088Z,99.90
2018-06-20T07:47:35.253Z,99.90
2018-06-20T07:50:04.065Z,99.90
2018-06-20T07:52:32.266Z,99.90
2018-06-20T07:55:00.718Z,99.90
2018-06-20T07:57:28.911Z,99.90
2018-06-20T08:00:03.155Z,99.90
2018-06-20T08:02:48.742Z,99.90
2018-06-20T08:05:22.519Z,99.90
2018-06-20T08:07:56.423Z,99.90
2018-06-20T08:10:30.117Z,99.90
2018-06-20T08:15:38.024Z,99.90
2018-06-20T08:18:11.941Z,99.90
2018-06-20T08:20:41.030Z,99.90
2018-06-20T08:23:09.231Z,99.90
2018-06-20T08:25:37.858Z,99.90
2018-06-20T08:28:06.742Z,99.90
2018-06-20T08:30:35.062Z,99.90
2018-06-20T08:33:03.283Z,99.90
2018-06-20T08:35:33.094Z,99.90
2018-06-20T08:38:01.654Z,99.90
2018-06-20T08:40:32.253Z,99.90
2018-06-20T08:43:01.585Z,99.90
2018-06-20T08:45:30.081Z,99.90
2018-06-20T08:47:58.267Z,99.90
2018-06-20T08:50:27.106Z,99.90
2018-06-20T08:52:55.438Z,99.90
2018-06-20T08:55:23.704Z,99.90
2018-06-20T08:57:52.176Z,99.90
2018-06-20T09:00:26.068Z,99.90
2018-06-20T09:02:54.971Z,99.90
2018-06-20T09:05:28.594Z,99.90
2018-06-20T09:08:02.251Z,99.90
2018-06-20T09:10:36.197Z,99.90
2018-06-20T09:13:10.206Z,99.90
2018-06-20T09:15:43.797Z,99.90
2018-06-20T09:18:17.503Z,99.90
2018-06-20T09:20:45.700Z,99.20
2018-06-20T09:23:14.214Z,99.00
2018-06-20T09:25:42.642Z,99.30
2018-06-20T09:28:11.250Z,99.10
2018-06-20T09:30:39.472Z,99.90
2018-06-20T09:33:07.986Z,99.90
2018-06-20T09:35:37.150Z,99.60
2018-06-20T09:38:05.734Z,99.00
2018-06-20T09:40:35.552Z,95.70
2018-06-20T09:43:03.971Z,93.70
2018-06-20T09:45:32.731Z,90.00
2018-06-20T09:48:01.230Z,83.50
2018-06-20T09:50:34.848Z,76.60
2018-06-20T09:53:03.534Z,73.60
2018-06-20T09:55:34.620Z,73.10
2018-06-20T09:58:03.516Z,72.50
2018-06-20T10:00:37.131Z,72.70
2018-06-20T10:03:11.694Z,70.80
2018-06-20T10:05:45.170Z,65.70
2018-06-20T10:08:18.773Z,67.70
2018-06-20T10:10:51.577Z,64.50
2018-06-20T10:13:24.671Z,60.80
2018-06-20T10:15:53.560Z,58.60
2018-06-20T10:18:22.657Z,53.20
2018-06-20T10:20:51.197Z,56.10
2018-06-20T10:23:19.385Z,58.10
2018-06-20T10:25:47.919Z,60.60
2018-06-20T10:28:16.541Z,62.40
2018-06-20T10:30:44.743Z,61.00
2018-06-20T10:33:12.934Z,61.40
2018-06-20T10:35:42.085Z,59.80
2018-06-20T10:38:10.277Z,60.30
2018-06-20T10:40:38.494Z,57.60
2018-06-20T10:43:07.134Z,56.80
2018-06-20T10:45:40.762Z,53.20
2018-06-20T10:48:13.299Z,54.30
2018-06-20T10:50:41.715Z,53.60
2018-06-20T10:53:09.956Z,54.40
2018-06-20T10:55:39.169Z,55.90
2018-06-20T10:58:13.196Z,57.20
2018-06-20T11:00:47.086Z,55.70
2018-06-20T11:03:21.283Z,53.90
2018-06-20T11:05:55.141Z,53.50
2018-06-20T11:08:28.823Z,50.90
2018-06-20T11:11:03.057Z,54.90
2018-06-20T11:13:31.306Z,55.70
2018-06-20T11:15:59.717Z,56.50
2018-06-20T11:18:28.364Z,54.50
2018-06-20T11:20:57.647Z,51.00
2018-06-20T11:23:26.674Z,48.60
2018-06-20T11:25:55.216Z,48.20
2018-06-20T11:28:23.726Z,48.00
2018-06-20T11:30:52.953Z,47.30
2018-06-20T11:33:24.182Z,47.20
2018-06-20T11:35:53.166Z,46.80
2018-06-20T11:38:21.642Z,44.40
2018-06-20T11:40:49.966Z,43.50
2018-06-20T11:43:18.506Z,41.60
2018-06-20T11:45:52.315Z,44.00
2018-06-20T11:48:20.596Z,44.50
2018-06-20T11:50:48.806Z,46.10
2018-06-20T11:53:18.008Z,46.70
2018-06-20T11:55:47.657Z,47.40
2018-06-20T11:58:21.308Z,51.30
2018-06-20T12:00:56.221Z,50.50
2018-06-20T12:03:29.799Z,51.00
2018-06-20T12:06:03.609Z,52.20
2018-06-20T12:08:37.261Z,53.90
2018-06-20T12:11:10.902Z,55.10
2018-06-20T12:13:44.543Z,53.40
2018-06-20T12:16:19.485Z,54.70
2018-06-20T12:18:53.149Z,46.90
2018-06-20T12:21:26.753Z,47.40
2018-06-20T12:24:00.758Z,47.30
2018-06-20T12:26:34.627Z,45.60
2018-06-20T12:29:08.382Z,44.00
2018-06-20T12:31:42.140Z,41.30
2018-06-20T12:34:15.829Z,38.10
2018-06-20T12:36:49.918Z,39.30
2018-06-20T12:39:17.855Z,42.30
2018-06-20T12:41:51.725Z,43.50
2018-06-20T12:44:25.764Z,41.80
2018-06-20T12:46:59.886Z,43.60
2018-06-20T12:49:30.925Z,44.60
2018-06-20T12:51:59.201Z,46.20
2018-06-20T12:54:27.405Z,46.80
2018-06-20T12:56:56.119Z,44.00
2018-06-20T12:59:24.318Z,42.10
2018-06-20T13:01:52.576Z,43.50
2018-06-20T13:04:20.810Z,43.60
2018-06-20T13:06:49.122Z,41.20
2018-06-20T13:09:18.015Z,37.40
2018-06-20T13:11:46.874Z,36.40
2018-06-20T13:14:15.203Z,37.00
2018-06-20T13:16:43.730Z,37.10
2018-06-20T13:19:11.994Z,38.90
2018-06-20T13:21:40.233Z,39.70
2018-06-20T13:24:08.789Z,41.10
2018-06-20T13:26:37.508Z,42.60
2018-06-20T13:29:05.734Z,45.30
2018-06-20T13:31:39.525Z,46.70
2018-06-20T13:34:13.460Z,45.50
2018-06-20T13:36:47.143Z,47.00
2018-06-20T13:39:20.730Z,47.30
2018-06-20T13:41:54.391Z,48.00
2018-06-20T13:44:23.261Z,49.10
2018-06-20T13:46:57.162Z,49.70
2018-06-20T13:49:25.826Z,49.60
2018-06-20T13:51:54.265Z,50.50
2018-06-20T13:54:23.553Z,50.30
2018-06-20T13:56:52.957Z,50.00
2018-06-20T13:59:21.198Z,51.20
2018-06-20T14:01:49.732Z,50.30
2018-06-20T14:04:17.926Z,50.30
2018-06-20T14:06:46.536Z,50.00
2018-06-20T14:09:14.749Z,50.90
2018-06-20T14:11:43.195Z,49.90
2018-06-20T14:14:11.925Z,51.00
2018-06-20T14:16:40.519Z,49.80
2018-06-20T14:19:09.042Z,50.30
2018-06-20T14:21:39.058Z,49.80
2018-06-20T14:24:08.962Z,51.00
2018-06-20T14:26:38.236Z,49.80
2018-06-20T14:29:08.223Z,50.50
2018-06-20T14:31:42.674Z,51.30
2018-06-20T14:34:16.445Z,51.10
2018-06-20T14:36:50.370Z,51.30
2018-06-20T14:39:24.325Z,52.10
2018-06-20T14:41:59.204Z,54.30
2018-06-20T14:44:27.413Z,54.00
2018-06-20T14:46:55.614Z,53.90
2018-06-20T14:49:24.256Z,51.20
2018-06-20T14:51:52.496Z,52.10
2018-06-20T14:54:20.701Z,51.30
2018-06-20T14:56:48.965Z,51.50
2018-06-20T14:59:18.419Z,49.60
2018-06-20T15:01:46.666Z,50.70
2018-06-20T15:04:15.213Z,50.10
2018-06-20T15:06:43.453Z,51.50
2018-06-20T15:09:11.988Z,52.40
2018-06-20T15:11:40.239Z,52.70
2018-06-20T15:14:08.446Z,53.10
2018-06-20T15:16:42.061Z,52.00
2018-06-20T15:19:10.281Z,52.10
2018-06-20T15:21:38.500Z,51.60
2018-06-20T15:24:06.728Z,52.20
2018-06-20T15:26:40.340Z,53.30
2018-06-20T15:29:13.880Z,54.20
2018-06-20T15:31:47.789Z,53.60
2018-06-20T15:34:21.543Z,53.90
2018-06-20T15:36:55.009Z,53.00
2018-06-20T15:39:23.677Z,52.80
2018-06-20T15:41:51.938Z,52.00
2018-06-20T15:44:20.493Z,51.90
2018-06-20T15:49:17.517Z,52.10
2018-06-20T15:51:46.143Z,52.70
2018-06-20T15:54:14.678Z,53.20
2018-06-20T15:56:43.249Z,54.40
2018-06-20T15:59:11.804Z,54.50
2018-06-20T16:01:40.098Z,53.80
2018-06-20T16:04:08.393Z,54.20
2018-06-20T16:06:36.655Z,54.60
2018-06-20T16:09:12.327Z,54.80
2018-06-20T16:11:40.635Z,54.40
2018-06-20T16:14:08.954Z,55.00
2018-06-20T16:16:37.604Z,55.20
2018-06-20T16:19:11.719Z,55.10
2018-06-20T16:21:45.560Z,55.40
2018-06-20T16:24:19.352Z,55.90
2018-06-20T16:26:53.163Z,57.00
2018-06-20T16:29:26.866Z,56.50
2018-06-20T16:31:55.115Z,56.30
2018-06-20T16:34:23.382Z,56.40
2018-06-20T16:36:52.438Z,56.20
2018-06-20T16:39:20.713Z,56.70
2018-06-20T16:41:48.986Z,57.00
2018-06-20T16:44:17.349Z,56.50
2018-06-20T16:46:45.918Z,56.30
2018-06-20T16:51:44.244Z,56.40
2018-06-20T16:54:12.490Z,56.60
2018-06-20T16:59:09.014Z,57.30
2018-06-20T17:01:42.602Z,56.70
2018-06-20T17:04:10.983Z,56.70
2018-06-20T17:06:39.239Z,56.50
2018-06-20T17:09:08.486Z,56.30
2018-06-20T17:11:37.035Z,56.60
2018-06-20T17:14:10.942Z,57.00
2018-06-20T17:16:44.542Z,57.30
2018-06-20T17:19:18.155Z,57.80
2018-06-20T17:21:52.507Z,58.00
2018-06-20T17:24:26.735Z,58.60
2018-06-20T17:26:55.361Z,58.60
2018-06-20T17:29:23.614Z,58.20
2018-06-20T17:31:51.913Z,57.70
2018-06-20T17:34:20.562Z,58.00
2018-06-20T17:36:48.819Z,58.30
2018-06-20T17:39:17.021Z,58.20
2018-06-20T17:41:45.646Z,58.40
2018-06-20T17:44:17.697Z,58.40
2018-06-20T17:46:46.282Z,58.70
2018-06-20T17:49:14.968Z,58.80
2018-06-20T17:51:43.553Z,58.40
2018-06-20T17:54:11.812Z,58.40
2018-06-20T17:56:40.104Z,58.60
2018-06-20T17:59:08.372Z,58.90
2018-06-20T18:01:36.717Z,59.70
2018-06-20T18:04:05.039Z,59.20
2018-06-20T18:06:39.461Z,59.10
2018-06-20T18:10:16.955Z,59.50
2018-06-20T18:12:50.550Z,59.60
2018-06-20T18:15:24.140Z,59.90
2018-06-20T18:17:52.718Z,60.00
2018-06-20T18:20:20.970Z,60.40
2018-06-20T18:22:49.703Z,60.40
2018-06-20T18:25:18.210Z,60.90
2018-06-20T18:27:47.229Z,60.50
2018-06-20T18:30:15.597Z,61.00
2018-06-20T18:32:43.974Z,61.10
2018-06-20T18:35:12.641Z,60.80
2018-06-20T18:37:41.191Z,60.90
2018-06-20T18:42:55.462Z,61.90
2018-06-20T18:45:24.087Z,62.10
2018-06-20T18:47:57.728Z,62.90
2018-06-20T18:50:26.328Z,62.60
2018-06-20T18:52:55.012Z,62.90
2018-06-20T18:55:23.409Z,65.30
2018-06-20T19:00:00.654Z,64.70
2018-06-20T19:02:35.370Z,66.80
2018-06-20T19:05:09.149Z,69.20
2018-06-20T19:07:43.522Z,67.60
2018-06-20T19:12:41.714Z,68.50
2018-06-20T19:15:10.939Z,68.70
